sensor_id;sensor_type;location;lat;lon;timestamp;pressure;altitude;pressure_sealevel;temperature;humidity
51261;BME280;61705;46.228;24.812;2023-02-28T00:00:37;98287.53;;;2.10;96.24
51261;BME280;61705;46.228;24.812;2023-02-28T00:03:14;98291.88;;;2.12;96.43
51261;BME280;61705;46.228;24.812;2023-02-28T00:05:43;98297.94;;;2.21;96.19
51261;BME280;61705;46.228;24.812;2023-02-28T00:08:09;98288.38;;;2.20;96.24
51261;BME280;61705;46.228;24.812;2023-02-28T00:10:36;98295.34;;;2.19;96.40
51261;BME280;61705;46.228;24.812;2023-02-28T00:13:05;98294.47;;;2.17;96.35
51261;BME280;61705;46.228;24.812;2023-02-28T00:15:33;98299.66;;;2.17;96.50
51261;BME280;61705;46.228;24.812;2023-02-28T00:18:00;98287.50;;;2.14;96.87
51261;BME280;61705;46.228;24.812;2023-02-28T00:20:27;98287.50;;;2.11;96.49
51261;BME280;61705;46.228;24.812;2023-02-28T00:22:56;98286.66;;;2.06;96.51
51261;BME280;61705;46.228;24.812;2023-02-28T00:25:24;98285.78;;;2.12;96.50
51261;BME280;61705;46.228;24.812;2023-02-28T00:28:02;98290.16;;;2.05;96.44
51261;BME280;61705;46.228;24.812;2023-02-28T00:30:31;98299.69;;;2.06;96.50
51261;BME280;61705;46.228;24.812;2023-02-28T00:33:03;98303.16;;;2.07;96.70
51261;BME280;61705;46.228;24.812;2023-02-28T00:35:35;98297.94;;;2.10;96.76
51261;BME280;61705;46.228;24.812;2023-02-28T00:38:04;98295.31;;;2.11;96.95
51261;BME280;61705;46.228;24.812;2023-02-28T00:40:31;98301.41;;;2.10;96.78
51261;BME280;61705;46.228;24.812;2023-02-28T00:42:59;98297.97;;;2.05;96.64
51261;BME280;61705;46.228;24.812;2023-02-28T00:45:28;98298.81;;;2.07;96.61
51261;BME280;61705;46.228;24.812;2023-02-28T00:47:56;98300.56;;;2.07;96.67
51261;BME280;61705;46.228;24.812;2023-02-28T00:50:22;98299.69;;;2.05;96.73
51261;BME280;61705;46.228;24.812;2023-02-28T00:52:51;98291.00;;;2.06;96.77
51261;BME280;61705;46.228;24.812;2023-02-28T00:55:18;98292.75;;;2.04;96.79
51261;BME280;61705;46.228;24.812;2023-02-28T00:57:45;98288.38;;;2.04;96.84
51261;BME280;61705;46.228;24.812;2023-02-28T01:00:14;98294.47;;;2.05;96.69
51261;BME280;61705;46.228;24.812;2023-02-28T01:02:41;98291.00;;;2.01;96.64
51261;BME280;61705;46.228;24.812;2023-02-28T01:05:38;98296.22;;;1.98;96.63
51261;BME280;61705;46.228;24.812;2023-02-28T01:08:30;98299.69;;;1.94;96.87
51261;BME280;61705;46.228;24.812;2023-02-28T01:11:11;98302.31;;;1.94;97.17
51261;BME280;61705;46.228;24.812;2023-02-28T01:13:38;98297.94;;;2.04;97.28
51261;BME280;61705;46.228;24.812;2023-02-28T01:16:06;98296.22;;;2.00;97.31
51261;BME280;61705;46.228;24.812;2023-02-28T01:18:36;98298.84;;;1.95;97.23
51261;BME280;61705;46.228;24.812;2023-02-28T01:21:15;98304.91;;;1.91;97.41
51261;BME280;61705;46.228;24.812;2023-02-28T01:23:42;98308.41;;;1.92;97.35
51261;BME280;61705;46.228;24.812;2023-02-28T01:26:21;98307.53;;;1.88;97.34
51261;BME280;61705;46.228;24.812;2023-02-28T01:28:49;98307.53;;;1.93;97.69
51261;BME280;61705;46.228;24.812;2023-02-28T01:31:17;98309.28;;;1.95;97.65
51261;BME280;61705;46.228;24.812;2023-02-28T01:33:49;98304.94;;;1.93;97.49
51261;BME280;61705;46.228;24.812;2023-02-28T01:36:21;98310.13;;;1.94;97.68
51261;BME280;61705;46.228;24.812;2023-02-28T01:38:54;98318.84;;;1.92;97.68
51261;BME280;61705;46.228;24.812;2023-02-28T01:41:24;98315.38;;;1.82;97.64
51261;BME280;61705;46.228;24.812;2023-02-28T01:46:46;98300.56;;;1.84;98.14
51261;BME280;61705;46.228;24.812;2023-02-28T01:49:15;98303.19;;;1.87;97.97
51261;BME280;61705;46.228;24.812;2023-02-28T01:51:52;98312.72;;;1.91;97.99
51261;BME280;61705;46.228;24.812;2023-02-28T01:54:24;98308.41;;;1.93;97.76
51261;BME280;61705;46.228;24.812;2023-02-28T01:57:04;98304.06;;;1.87;97.85
51261;BME280;61705;46.228;24.812;2023-02-28T01:59:37;98311.03;;;1.92;98.17
51261;BME280;61705;46.228;24.812;2023-02-28T02:02:14;98308.41;;;1.88;97.97
51261;BME280;61705;46.228;24.812;2023-02-28T02:04:49;98311.88;;;1.92;98.09
51261;BME280;61705;46.228;24.812;2023-02-28T02:07:17;98306.66;;;1.90;97.97
51261;BME280;61705;46.228;24.812;2023-02-28T02:18:06;98302.31;;;1.91;97.92
51261;BME280;61705;46.228;24.812;2023-02-28T02:37:15;98313.63;;;1.79;98.12
51261;BME280;61705;46.228;24.812;2023-02-28T02:40:00;98325.78;;;1.83;98.08
51261;BME280;61705;46.228;24.812;2023-02-28T02:42:36;98324.91;;;1.84;98.04
51261;BME280;61705;46.228;24.812;2023-02-28T02:47:56;98320.56;;;1.79;98.15
51261;BME280;61705;46.228;24.812;2023-02-28T02:50:46;98317.09;;;1.81;98.34
51261;BME280;61705;46.228;24.812;2023-02-28T02:53:18;98324.91;;;1.84;98.31
51261;BME280;61705;46.228;24.812;2023-02-28T02:55:51;98327.50;;;1.83;98.21
51261;BME280;61705;46.228;24.812;2023-02-28T02:58:24;98330.13;;;1.81;98.41
51261;BME280;61705;46.228;24.812;2023-02-28T03:00:59;98329.25;;;1.84;98.37
51261;BME280;61705;46.228;24.812;2023-02-28T03:03:29;98320.59;;;1.85;98.41
51261;BME280;61705;46.228;24.812;2023-02-28T03:05:59;98317.06;;;1.84;98.46
51261;BME280;61705;46.228;24.812;2023-02-28T03:08:31;98318.84;;;1.85;98.34
51261;BME280;61705;46.228;24.812;2023-02-28T03:11:01;98308.41;;;1.85;98.38
51261;BME280;61705;46.228;24.812;2023-02-28T03:19:26;98310.16;;;1.79;98.29
51261;BME280;61705;46.228;24.812;2023-02-28T03:22:14;98311.88;;;1.77;98.34
51261;BME280;61705;46.228;24.812;2023-02-28T03:33:12;98329.25;;;1.82;97.95
51261;BME280;61705;46.228;24.812;2023-02-28T03:35:57;98326.66;;;1.76;98.07
51261;BME280;61705;46.228;24.812;2023-02-28T03:38:38;98338.81;;;1.86;97.57
51261;BME280;61705;46.228;24.812;2023-02-28T03:41:20;98347.50;;;1.87;97.41
51261;BME280;61705;46.228;24.812;2023-02-28T03:43:55;98345.75;;;1.92;97.01
51261;BME280;61705;46.228;24.812;2023-02-28T03:46:28;98338.78;;;1.91;96.80
51261;BME280;61705;46.228;24.812;2023-02-28T03:49:07;98350.97;;;1.92;96.55
51261;BME280;61705;46.228;24.812;2023-02-28T03:51:36;98354.44;;;1.94;96.53
51261;BME280;61705;46.228;24.812;2023-02-28T03:54:10;98362.25;;;1.96;96.44
51261;BME280;61705;46.228;24.812;2023-02-28T03:57:05;98357.03;;;1.94;96.39
51261;BME280;61705;46.228;24.812;2023-02-28T03:59:47;98357.03;;;1.97;96.67
51261;BME280;61705;46.228;24.812;2023-02-28T04:02:17;98358.78;;;1.95;96.34
51261;BME280;61705;46.228;24.812;2023-02-28T04:04:44;98351.84;;;1.89;96.50
51261;BME280;61705;46.228;24.812;2023-02-28T04:07:15;98352.72;;;1.88;96.48
51261;BME280;61705;46.228;24.812;2023-02-28T04:09:41;98347.50;;;1.87;96.70
51261;BME280;61705;46.228;24.812;2023-02-28T04:12:08;98351.84;;;1.85;96.98
51261;BME280;61705;46.228;24.812;2023-02-28T04:14:35;98339.66;;;1.81;97.17
51261;BME280;61705;46.228;24.812;2023-02-28T04:17:04;98333.59;;;1.80;97.25
51261;BME280;61705;46.228;24.812;2023-02-28T04:19:35;98330.13;;;1.75;97.57
51261;BME280;61705;46.228;24.812;2023-02-28T04:22:04;98328.38;;;1.74;97.56
51261;BME280;61705;46.228;24.812;2023-02-28T04:24:31;98328.38;;;1.77;97.70
51261;BME280;61705;46.228;24.812;2023-02-28T04:27:00;98338.81;;;1.76;97.64
51261;BME280;61705;46.228;24.812;2023-02-28T04:29:32;98326.66;;;1.75;97.75
51261;BME280;61705;46.228;24.812;2023-02-28T04:31:59;98331.88;;;1.75;97.51
51261;BME280;61705;46.228;24.812;2023-02-28T04:34:31;98327.50;;;1.71;97.54
51261;BME280;61705;46.228;24.812;2023-02-28T04:37:04;98324.03;;;1.70;97.72
51261;BME280;61705;46.228;24.812;2023-02-28T04:39:40;98337.94;;;1.74;97.61
51261;BME280;61705;46.228;24.812;2023-02-28T04:42:11;98337.94;;;1.72;97.21
51261;BME280;61705;46.228;24.812;2023-02-28T04:44:38;98334.44;;;1.70;97.44
51261;BME280;61705;46.228;24.812;2023-02-28T04:47:04;98331.88;;;1.75;97.49
51261;BME280;61705;46.228;24.812;2023-02-28T04:49:31;98336.19;;;1.80;97.30
51261;BME280;61705;46.228;24.812;2023-02-28T04:51:58;98344.00;;;1.77;97.35
51261;BME280;61705;46.228;24.812;2023-02-28T04:54:24;98347.47;;;1.84;97.09
51261;BME280;61705;46.228;24.812;2023-02-28T04:56:51;98350.97;;;1.83;96.94
51261;BME280;61705;46.228;24.812;2023-02-28T04:59:18;98351.81;;;1.80;96.93
51261;BME280;61705;46.228;24.812;2023-02-28T05:01:46;98343.16;;;1.80;97.02
51261;BME280;61705;46.228;24.812;2023-02-28T05:04:13;98347.47;;;1.78;97.21
51261;BME280;61705;46.228;24.812;2023-02-28T05:06:40;98346.63;;;1.76;97.21
51261;BME280;61705;46.228;24.812;2023-02-28T05:09:07;98357.03;;;1.76;97.44
51261;BME280;61705;46.228;24.812;2023-02-28T05:11:34;98365.75;;;1.82;97.36
51261;BME280;61705;46.228;24.812;2023-02-28T05:14:06;98371.78;;;1.84;97.27
51261;BME280;61705;46.228;24.812;2023-02-28T05:16:39;98374.41;;;1.87;97.17
51261;BME280;61705;46.228;24.812;2023-02-28T05:19:05;98371.81;;;1.90;97.08
51261;BME280;61705;46.228;24.812;2023-02-28T05:21:38;98377.03;;;1.94;97.12
51261;BME280;61705;46.228;24.812;2023-02-28T05:24:11;98370.94;;;1.95;97.24
51261;BME280;61705;46.228;24.812;2023-02-28T05:26:40;98361.41;;;1.95;97.25
51261;BME280;61705;46.228;24.812;2023-02-28T05:29:08;98357.03;;;1.88;97.20
51261;BME280;61705;46.228;24.812;2023-02-28T05:31:35;98372.66;;;1.88;97.34
51261;BME280;61705;46.228;24.812;2023-02-28T05:34:02;98372.69;;;1.86;97.24
51261;BME280;61705;46.228;24.812;2023-02-28T05:36:31;98384.84;;;2.03;97.37
51261;BME280;61705;46.228;24.812;2023-02-28T05:39:00;98394.41;;;2.01;97.38
51261;BME280;61705;46.228;24.812;2023-02-28T05:41:29;98387.47;;;2.12;97.41
51261;BME280;61705;46.228;24.812;2023-02-28T05:43:57;98391.78;;;2.18;97.20
51261;BME280;61705;46.228;24.812;2023-02-28T05:46:24;98394.41;;;2.24;97.15
51261;BME280;61705;46.228;24.812;2023-02-28T05:48:53;98396.13;;;2.34;96.95
51261;BME280;61705;46.228;24.812;2023-02-28T05:51:22;98387.41;;;2.29;96.74
51261;BME280;61705;46.228;24.812;2023-02-28T05:53:48;98396.13;;;2.29;96.55
51261;BME280;61705;46.228;24.812;2023-02-28T05:56:15;98399.63;;;2.36;96.56
51261;BME280;61705;46.228;24.812;2023-02-28T05:58:42;98390.03;;;2.35;96.67
51261;BME280;61705;46.228;24.812;2023-02-28T06:03:48;98403.06;;;2.50;96.52
51261;BME280;61705;46.228;24.812;2023-02-28T06:06:15;98405.66;;;2.53;96.34
51261;BME280;61705;46.228;24.812;2023-02-28T06:08:44;98403.94;;;2.51;96.40
51261;BME280;61705;46.228;24.812;2023-02-28T06:11:16;98396.09;;;2.49;96.09
51261;BME280;61705;46.228;24.812;2023-02-28T06:13:42;98399.56;;;2.51;95.99
51261;BME280;61705;46.228;24.812;2023-02-28T06:16:11;98401.28;;;2.71;95.95
51261;BME280;61705;46.228;24.812;2023-02-28T06:18:38;98396.03;;;2.75;95.61
51261;BME280;61705;46.228;24.812;2023-02-28T06:21:12;98402.09;;;2.87;95.53
51261;BME280;61705;46.228;24.812;2023-02-28T06:23:44;98391.63;;;2.96;95.38
51261;BME280;61705;46.228;24.812;2023-02-28T06:26:15;98392.47;;;3.05;95.13
51261;BME280;61705;46.228;24.812;2023-02-28T06:28:41;98391.66;;;2.91;94.78
51261;BME280;61705;46.228;24.812;2023-02-28T06:31:09;98388.06;;;3.11;94.64
51261;BME280;61705;46.228;24.812;2023-02-28T06:33:38;98392.38;;;3.24;94.27
51261;BME280;61705;46.228;24.812;2023-02-28T06:36:15;98390.66;;;3.17;93.85
51261;BME280;61705;46.228;24.812;2023-02-28T06:38:44;98396.75;;;3.17;94.07
51261;BME280;61705;46.228;24.812;2023-02-28T06:41:14;98399.28;;;3.39;94.33
51261;BME280;61705;46.228;24.812;2023-02-28T06:43:48;98396.66;;;3.39;93.72
51261;BME280;61705;46.228;24.812;2023-02-28T06:46:15;98398.44;;;3.29;93.52
51261;BME280;61705;46.228;24.812;2023-02-28T06:48:45;98408.97;;;3.15;93.02
51261;BME280;61705;46.228;24.812;2023-02-28T06:51:21;98408.06;;;3.22;92.91
51261;BME280;61705;46.228;24.812;2023-02-28T06:53:50;98400.19;;;3.24;92.45
51261;BME280;61705;46.228;24.812;2023-02-28T06:56:18;98391.53;;;3.22;92.22
51261;BME280;61705;46.228;24.812;2023-02-28T07:01:22;98395.81;;;3.35;92.25
51261;BME280;61705;46.228;24.812;2023-02-28T07:03:53;98388.84;;;3.34;92.38
51261;BME280;61705;46.228;24.812;2023-02-28T07:06:29;98399.22;;;3.45;92.49
51261;BME280;61705;46.228;24.812;2023-02-28T07:09:04;98404.53;;;3.36;92.45
51261;BME280;61705;46.228;24.812;2023-02-28T07:11:43;98396.69;;;3.32;92.00
51261;BME280;61705;46.228;24.812;2023-02-28T07:14:20;98396.66;;;3.34;91.71
51261;BME280;61705;46.228;24.812;2023-02-28T07:16:50;98403.59;;;3.38;91.63
51261;BME280;61705;46.228;24.812;2023-02-28T07:19:19;98408.81;;;3.46;90.89
51261;BME280;61705;46.228;24.812;2023-02-28T07:21:48;98399.28;;;3.39;90.82
51261;BME280;61705;46.228;24.812;2023-02-28T07:24:14;98394.91;;;3.42;90.70
51261;BME280;61705;46.228;24.812;2023-02-28T07:26:42;98397.50;;;3.45;90.59
51261;BME280;61705;46.228;24.812;2023-02-28T07:29:09;98403.53;;;3.55;90.62
51261;BME280;61705;46.228;24.812;2023-02-28T07:31:37;98403.47;;;3.64;90.76
51261;BME280;61705;46.228;24.812;2023-02-28T07:34:05;98400.91;;;3.58;90.66
51261;BME280;61705;46.228;24.812;2023-02-28T07:36:32;98405.25;;;3.61;90.38
51261;BME280;61705;46.228;24.812;2023-02-28T07:39:01;98413.84;;;3.75;90.36
51261;BME280;61705;46.228;24.812;2023-02-28T07:41:31;98405.97;;;3.81;90.14
51261;BME280;61705;46.228;24.812;2023-02-28T07:44:00;98401.53;;;3.95;90.14
51261;BME280;61705;46.228;24.812;2023-02-28T07:46:28;98406.69;;;4.00;90.09
51261;BME280;61705;46.228;24.812;2023-02-28T07:49:03;98410.16;;;4.08;89.96
51261;BME280;61705;46.228;24.812;2023-02-28T07:51:31;98407.38;;;4.23;89.11
51261;BME280;61705;46.228;24.812;2023-02-28T07:54:00;98405.44;;;4.47;88.63
51261;BME280;61705;46.228;24.812;2023-02-28T07:56:26;98415.09;;;4.42;87.45
51261;BME280;61705;46.228;24.812;2023-02-28T07:58:54;98412.47;;;4.42;87.67
51261;BME280;61705;46.228;24.812;2023-02-28T08:01:21;98408.13;;;4.39;87.12
51261;BME280;61705;46.228;24.812;2023-02-28T08:03:48;98402.00;;;4.45;86.77
51261;BME280;61705;46.228;24.812;2023-02-28T08:06:29;98410.44;;;4.73;86.60
51261;BME280;61705;46.228;24.812;2023-02-28T08:08:59;98411.16;;;4.87;86.48
51261;BME280;61705;46.228;24.812;2023-02-28T08:11:25;98409.25;;;4.98;85.52
51261;BME280;61705;46.228;24.812;2023-02-28T08:13:54;98408.41;;;4.99;84.25
51261;BME280;61705;46.228;24.812;2023-02-28T08:16:21;98400.22;;;5.26;84.06
51261;BME280;61705;46.228;24.812;2023-02-28T08:18:50;98409.00;;;5.23;82.82
51261;BME280;61705;46.228;24.812;2023-02-28T08:21:17;98401.81;;;5.36;83.01
51261;BME280;61705;46.228;24.812;2023-02-28T08:23:49;98401.72;;;5.43;82.04
51261;BME280;61705;46.228;24.812;2023-02-28T08:26:16;98410.09;;;5.70;83.41
51261;BME280;61705;46.228;24.812;2023-02-28T08:28:43;98412.69;;;5.73;82.83
51261;BME280;61705;46.228;24.812;2023-02-28T08:31:11;98417.84;;;5.78;83.01
51261;BME280;61705;46.228;24.812;2023-02-28T08:33:40;98406.28;;;5.94;84.04
51261;BME280;61705;46.228;24.812;2023-02-28T08:36:07;98406.19;;;6.02;84.34
51261;BME280;61705;46.228;24.812;2023-02-28T08:38:34;98408.59;;;6.14;84.02
51261;BME280;61705;46.228;24.812;2023-02-28T08:41:02;98411.97;;;6.22;83.25
51261;BME280;61705;46.228;24.812;2023-02-28T08:43:31;98412.75;;;6.27;82.72
51261;BME280;61705;46.228;24.812;2023-02-28T08:45:58;98408.63;;;6.12;80.67
51261;BME280;61705;46.228;24.812;2023-02-28T08:48:29;98406.00;;;6.12;80.64
51261;BME280;61705;46.228;24.812;2023-02-28T08:51:01;98401.81;;;6.02;77.67
51261;BME280;61705;46.228;24.812;2023-02-28T08:53:34;98411.94;;;6.24;79.62
51261;BME280;61705;46.228;24.812;2023-02-28T08:56:04;98409.19;;;6.33;80.41
51261;BME280;61705;46.228;24.812;2023-02-28T08:58:31;98398.16;;;6.12;78.42
51261;BME280;61705;46.228;24.812;2023-02-28T09:00:58;98410.28;;;6.20;79.03
51261;BME280;61705;46.228;24.812;2023-02-28T09:03:26;98404.22;;;6.16;79.57
51261;BME280;61705;46.228;24.812;2023-02-28T09:06:01;98408.56;;;6.17;79.62
51261;BME280;61705;46.228;24.812;2023-02-28T09:08:29;98420.63;;;6.27;79.85
51261;BME280;61705;46.228;24.812;2023-02-28T09:10:57;98414.66;;;6.19;79.39
51261;BME280;61705;46.228;24.812;2023-02-28T09:13:27;98409.59;;;6.07;79.11
51261;BME280;61705;46.228;24.812;2023-02-28T09:16:03;98412.09;;;6.14;78.68
51261;BME280;61705;46.228;24.812;2023-02-28T09:18:36;98408.50;;;6.20;78.35
51261;BME280;61705;46.228;24.812;2023-02-28T09:21:14;98410.09;;;6.30;78.15
51261;BME280;61705;46.228;24.812;2023-02-28T09:23:48;98414.16;;;6.48;78.26
51261;BME280;61705;46.228;24.812;2023-02-28T09:26:24;98404.50;;;6.50;77.15
51261;BME280;61705;46.228;24.812;2023-02-28T09:29:08;98405.06;;;6.68;77.39
51261;BME280;61705;46.228;24.812;2023-02-28T09:31:34;98411.03;;;6.77;77.64
51261;BME280;61705;46.228;24.812;2023-02-28T09:34:03;98402.94;;;6.86;77.64
51261;BME280;61705;46.228;24.812;2023-02-28T09:36:36;98393.44;;;6.81;76.85
51261;BME280;61705;46.228;24.812;2023-02-28T09:39:19;98400.16;;;6.96;76.31
51261;BME280;61705;46.228;24.812;2023-02-28T09:41:51;98402.41;;;7.16;76.52
51261;BME280;61705;46.228;24.812;2023-02-28T09:47:26;98389.84;;;7.30;76.26
51261;BME280;61705;46.228;24.812;2023-02-28T09:49:51;98390.56;;;7.36;75.40
51261;BME280;61705;46.228;24.812;2023-02-28T09:52:20;98385.94;;;7.48;75.25
51261;BME280;61705;46.228;24.812;2023-02-28T09:54:50;98381.22;;;7.62;74.90
51261;BME280;61705;46.228;24.812;2023-02-28T09:57:23;98372.22;;;7.74;74.46
51261;BME280;61705;46.228;24.812;2023-02-28T10:00:30;98378.38;;;7.73;73.77
51261;BME280;61705;46.228;24.812;2023-02-28T10:05:16;98372.59;;;7.17;73.18
51261;BME280;61705;46.228;24.812;2023-02-28T10:16:25;98378.63;;;7.20;73.83
51261;BME280;61705;46.228;24.812;2023-02-28T10:22:18;98370.50;;;7.32;72.98
51261;BME280;61705;46.228;24.812;2023-02-28T10:24:52;98371.94;;;7.47;72.58
51261;BME280;61705;46.228;24.812;2023-02-28T10:27:23;98360.44;;;7.51;72.33
51261;BME280;61705;46.228;24.812;2023-02-28T10:29:52;98356.78;;;7.58;72.12
51261;BME280;61705;46.228;24.812;2023-02-28T10:32:20;98358.53;;;7.58;71.66
51261;BME280;61705;46.228;24.812;2023-02-28T10:35:09;98352.75;;;7.81;71.85
51261;BME280;61705;46.228;24.812;2023-02-28T10:37:39;98354.06;;;8.00;71.82
51261;BME280;61705;46.228;24.812;2023-02-28T10:40:25;98347.69;;;8.09;71.40
51261;BME280;61705;46.228;24.812;2023-02-28T10:43:02;98344.97;;;8.14;70.63
51261;BME280;61705;46.228;24.812;2023-02-28T10:45:34;98351.91;;;8.16;70.25
51261;BME280;61705;46.228;24.812;2023-02-28T10:51:04;98346.03;;;8.41;69.96
51261;BME280;61705;46.228;24.812;2023-02-28T10:53:30;98344.16;;;8.46;70.01
51261;BME280;61705;46.228;24.812;2023-02-28T11:01:43;98331.59;;;8.56;69.56
51261;BME280;61705;46.228;24.812;2023-02-28T11:04:54;98327.97;;;8.60;68.67
51261;BME280;61705;46.228;24.812;2023-02-28T11:09:56;98324.03;;;8.76;68.51
51261;BME280;61705;46.228;24.812;2023-02-28T11:12:25;98320.09;;;8.60;68.06
51261;BME280;61705;46.228;24.812;2023-02-28T11:15:21;98325.34;;;8.60;68.13
51261;BME280;61705;46.228;24.812;2023-02-28T11:17:53;98322.19;;;8.78;68.08
51261;BME280;61705;46.228;24.812;2023-02-28T11:20:24;98319.22;;;8.90;67.61
51261;BME280;61705;46.228;24.812;2023-02-28T11:22:51;98319.38;;;8.86;67.68
51261;BME280;61705;46.228;24.812;2023-02-28T11:25:23;98314.25;;;8.80;67.55
51261;BME280;61705;46.228;24.812;2023-02-28T11:28:00;98312.44;;;8.82;67.75
51261;BME280;61705;46.228;24.812;2023-02-28T11:30:30;98309.84;;;8.80;66.66
51261;BME280;61705;46.228;24.812;2023-02-28T11:32:57;98302.50;;;8.91;66.28
51261;BME280;61705;46.228;24.812;2023-02-28T11:35:32;98302.75;;;9.13;66.77
51261;BME280;61705;46.228;24.812;2023-02-28T11:38:00;98310.00;;;9.05;66.26
51261;BME280;61705;46.228;24.812;2023-02-28T11:43:05;98308.19;;;9.07;66.20
51261;BME280;61705;46.228;24.812;2023-02-28T11:45:37;98287.50;;;9.23;66.04
51261;BME280;61705;46.228;24.812;2023-02-28T11:48:32;98295.38;;;9.24;66.44
51261;BME280;61705;46.228;24.812;2023-02-28T11:53:52;98288.91;;;9.05;66.41
51261;BME280;61705;46.228;24.812;2023-02-28T11:56:44;98290.34;;;9.17;66.25
51261;BME280;61705;46.228;24.812;2023-02-28T12:07:25;98292.03;;;8.88;66.12
51261;BME280;61705;46.228;24.812;2023-02-28T12:20:21;98297.88;;;8.99;66.09
51261;BME280;61705;46.228;24.812;2023-02-28T12:22:54;98297.69;;;9.06;66.33
51261;BME280;61705;46.228;24.812;2023-02-28T12:28:14;98293.16;;;9.11;66.23
51261;BME280;61705;46.228;24.812;2023-02-28T12:30:49;98299.28;;;9.11;66.34
51261;BME280;61705;46.228;24.812;2023-02-28T12:33:36;98293.50;;;8.98;66.23
51261;BME280;61705;46.228;24.812;2023-02-28T12:36:09;98285.38;;;9.06;66.02
51261;BME280;61705;46.228;24.812;2023-02-28T12:38:40;98297.66;;;9.07;65.96
51261;BME280;61705;46.228;24.812;2023-02-28T12:41:27;98287.69;;;9.17;66.02
51261;BME280;61705;46.228;24.812;2023-02-28T12:44:07;98286.63;;;9.22;65.88
51261;BME280;61705;46.228;24.812;2023-02-28T12:46:45;98286.09;;;9.11;65.61
51261;BME280;61705;46.228;24.812;2023-02-28T12:49:34;98292.38;;;9.07;65.55
51261;BME280;61705;46.228;24.812;2023-02-28T12:52:03;98298.66;;;9.03;66.23
51261;BME280;61705;46.228;24.812;2023-02-28T12:57:02;98295.84;;;8.78;66.30
51261;BME280;61705;46.228;24.812;2023-02-28T12:59:34;98289.25;;;8.63;66.65
51261;BME280;61705;46.228;24.812;2023-02-28T13:07:53;98294.03;;;8.49;67.82
51261;BME280;61705;46.228;24.812;2023-02-28T13:10:37;98294.06;;;8.47;68.12
51261;BME280;61705;46.228;24.812;2023-02-28T13:13:10;98291.63;;;8.41;68.40
51261;BME280;61705;46.228;24.812;2023-02-28T13:15:39;98296.16;;;8.35;68.88
51261;BME280;61705;46.228;24.812;2023-02-28T13:18:27;98295.31;;;8.32;69.37
51261;BME280;61705;46.228;24.812;2023-02-28T13:20:55;98294.25;;;8.41;69.78
51261;BME280;61705;46.228;24.812;2023-02-28T13:26:10;98290.66;;;8.44;70.16
51261;BME280;61705;46.228;24.812;2023-02-28T13:31:17;98294.72;;;8.56;70.65
51261;BME280;61705;46.228;24.812;2023-02-28T13:44:00;98288.63;;;8.19;71.81
51261;BME280;61705;46.228;24.812;2023-02-28T13:46:27;98283.91;;;8.32;71.41
51261;BME280;61705;46.228;24.812;2023-02-28T13:48:54;98290.78;;;8.39;71.45
51261;BME280;61705;46.228;24.812;2023-02-28T13:51:43;98283.81;;;8.02;72.20
51261;BME280;61705;46.228;24.812;2023-02-28T14:07:02;98283.72;;;8.41;71.44
51261;BME280;61705;46.228;24.812;2023-02-28T14:09:34;98286.56;;;8.30;71.63
51261;BME280;61705;46.228;24.812;2023-02-28T14:17:15;98279.66;;;8.26;71.75
51261;BME280;61705;46.228;24.812;2023-02-28T14:19:44;98281.66;;;8.18;71.82
51261;BME280;61705;46.228;24.812;2023-02-28T14:25:07;98281.78;;;8.14;71.97
51261;BME280;61705;46.228;24.812;2023-02-28T14:27:42;98288.69;;;7.83;72.86
51261;BME280;61705;46.228;24.812;2023-02-28T14:37:42;98289.88;;;7.70;73.33
51261;BME280;61705;46.228;24.812;2023-02-28T14:40:15;98289.03;;;7.68;73.04
51261;BME280;61705;46.228;24.812;2023-02-28T14:42:46;98293.56;;;7.62;73.19
51261;BME280;61705;46.228;24.812;2023-02-28T14:45:19;98294.09;;;7.40;73.68
51261;BME280;61705;46.228;24.812;2023-02-28T14:47:50;98303.13;;;7.28;73.97
51261;BME280;61705;46.228;24.812;2023-02-28T14:50:20;98302.34;;;7.23;74.32
51261;BME280;61705;46.228;24.812;2023-02-28T14:52:51;98305.97;;;7.18;75.26
51261;BME280;61705;46.228;24.812;2023-02-28T14:55:26;98298.00;;;7.21;74.87
51261;BME280;61705;46.228;24.812;2023-02-28T14:57:59;98300.56;;;7.24;75.21
51261;BME280;61705;46.228;24.812;2023-02-28T15:00:35;98295.44;;;7.19;74.82
51261;BME280;61705;46.228;24.812;2023-02-28T15:03:19;98302.34;;;7.25;75.55
51261;BME280;61705;46.228;24.812;2023-02-28T15:05:55;98298.72;;;7.29;75.25
51261;BME280;61705;46.228;24.812;2023-02-28T15:08:24;98301.56;;;7.20;75.14
51261;BME280;61705;46.228;24.812;2023-02-28T15:10:59;98302.34;;;7.25;75.48
51261;BME280;61705;46.228;24.812;2023-02-28T15:13:42;98308.69;;;7.13;75.71
51261;BME280;61705;46.228;24.812;2023-02-28T15:16:20;98304.97;;;7.25;75.55
51261;BME280;61705;46.228;24.812;2023-02-28T15:18:56;98308.53;;;7.21;75.86
51261;BME280;61705;46.228;24.812;2023-02-28T15:24:05;98302.94;;;7.36;75.65
51261;BME280;61705;46.228;24.812;2023-02-28T15:26:39;98306.78;;;7.60;74.98
51261;BME280;61705;46.228;24.812;2023-02-28T15:29:12;98297.38;;;7.87;74.06
51261;BME280;61705;46.228;24.812;2023-02-28T15:31:44;98302.78;;;8.15;73.50
51261;BME280;61705;46.228;24.812;2023-02-28T15:34:43;98294.25;;;8.07;72.10
51261;BME280;61705;46.228;24.812;2023-02-28T15:40:04;98298.06;;;8.28;72.06
51261;BME280;61705;46.228;24.812;2023-02-28T15:42:31;98295.22;;;7.67;73.53
51261;BME280;61705;46.228;24.812;2023-02-28T15:44:58;98294.88;;;7.44;74.26
51261;BME280;61705;46.228;24.812;2023-02-28T15:47:29;98301.63;;;7.17;75.13
51261;BME280;61705;46.228;24.812;2023-02-28T15:50:04;98299.34;;;7.00;75.64
51261;BME280;61705;46.228;24.812;2023-02-28T15:52:42;98304.88;;;6.87;75.90
51261;BME280;61705;46.228;24.812;2023-02-28T15:55:36;98299.13;;;6.69;76.08
51261;BME280;61705;46.228;24.812;2023-02-28T15:58:04;98307.22;;;6.56;76.63
51261;BME280;61705;46.228;24.812;2023-02-28T16:00:31;98313.56;;;6.46;76.75
51261;BME280;61705;46.228;24.812;2023-02-28T16:03:25;98314.50;;;6.42;76.76
51261;BME280;61705;46.228;24.812;2023-02-28T16:06:09;98315.56;;;6.33;76.99
51261;BME280;61705;46.228;24.812;2023-02-28T16:08:48;98321.81;;;6.26;76.96